Time;durP1;ratioP1;P1;durP2;ratioP2;P2;SDS_P1;SDS_P2;PMS_P1;PMS_P2;Temp;Humidity;BMP_temperature;BMP_pressure;BME280_temperature;BME280_humidity;BME280_pressure;Samples;Min_cycle;Max_cycle;Signal;HPM_P1;HPM_P2
2023/12/22 00:00:48;;;;;;;49.92;44.95;;;26.40;99.90;;;;;;4987177;28;20431;-66
2023/12/22 00:03:15;;;;;;;56.35;51.17;;;26.40;99.90;;;;;;4992348;28;20026;-66
2023/12/22 00:05:42;;;;;;;45.45;40.97;;;26.30;99.90;;;;;;4992566;28;20078;-67
2023/12/22 00:08:08;;;;;;;43.35;39.22;;;26.40;99.90;;;;;;4987108;28;20121;-66
2023/12/22 00:10:35;;;;;;;48.75;43.72;;;26.40;99.90;;;;;;4983964;28;20030;-67
2023/12/22 00:13:01;;;;;;;51.22;46.35;;;26.40;99.90;;;;;;4985869;28;20038;-66
2023/12/22 00:15:28;;;;;;;46.00;41.58;;;26.40;99.90;;;;;;4985427;28;20033;-66
2023/12/22 00:17:54;;;;;;;45.10;40.42;;;26.40;99.90;;;;;;4978592;28;20030;-66
2023/12/22 00:20:21;;;;;;;55.15;50.20;;;26.40;99.90;;;;;;4976784;28;20038;-66
2023/12/22 00:22:47;;;;;;;47.40;42.92;;;26.50;99.90;;;;;;4977040;28;20019;-66
2023/12/22 00:25:14;;;;;;;50.25;45.53;;;26.50;99.90;;;;;;4977184;28;20468;-66
2023/12/22 00:27:40;;;;;;;41.15;37.13;;;26.50;99.90;;;;;;4976827;28;20023;-66
2023/12/22 00:30:07;;;;;;;40.78;36.63;;;26.50;99.90;;;;;;4981425;28;20090;-66
2023/12/22 00:32:34;;;;;;;46.05;42.10;;;26.50;99.90;;;;;;4976714;28;20058;-66
2023/12/22 00:35:00;;;;;;;56.70;51.92;;;26.60;99.90;;;;;;4986935;28;20034;-65
2023/12/22 00:37:27;;;;;;;45.67;41.20;;;26.60;99.90;;;;;;4985807;28;20031;-66
2023/12/22 00:39:53;;;;;;;55.35;50.40;;;26.60;99.90;;;;;;4986768;28;20035;-67
2023/12/22 00:42:20;;;;;;;43.50;39.65;;;26.60;99.90;;;;;;4976464;28;20034;-67
2023/12/22 00:44:46;;;;;;;41.40;37.75;;;26.60;99.90;;;;;;4986671;28;20014;-66
2023/12/22 00:47:13;;;;;;;34.15;30.90;;;26.70;99.90;;;;;;4994143;28;20595;-66
2023/12/22 00:49:39;;;;;;;55.92;51.10;;;26.70;99.90;;;;;;4990195;28;20403;-66
2023/12/22 00:52:06;;;;;;;49.80;45.10;;;26.80;99.90;;;;;;5004367;28;20169;-67
2023/12/22 00:54:32;;;;;;;46.03;42.05;;;26.90;99.90;;;;;;5005628;28;20024;-67
2023/12/22 00:56:59;;;;;;;40.15;36.70;;;26.90;99.90;;;;;;5011385;28;20037;-67
2023/12/22 00:59:25;;;;;;;42.00;38.33;;;26.90;99.90;;;;;;4985689;28;20018;-67
2023/12/22 01:01:52;;;;;;;43.40;39.58;;;26.90;99.90;;;;;;4986552;28;20534;-67
2023/12/22 01:04:18;;;;;;;42.08;38.60;;;27.00;99.90;;;;;;4986231;28;20027;-67
2023/12/22 01:06:45;;;;;;;41.60;37.30;;;27.10;99.90;;;;;;4989068;28;20055;-67
2023/12/22 01:09:11;;;;;;;33.70;30.25;;;27.20;99.90;;;;;;4984493;28;20022;-67
2023/12/22 01:11:38;;;;;;;38.88;35.13;;;27.20;99.90;;;;;;4978525;28;20027;-70
2023/12/22 01:14:06;;;;;;;38.47;34.90;;;27.20;99.90;;;;;;4976083;28;20026;-67
2023/12/22 01:16:33;;;;;;;39.35;35.90;;;27.20;99.90;;;;;;4975868;28;20027;-67
2023/12/22 01:19:00;;;;;;;43.38;39.47;;;27.20;99.90;;;;;;4975796;28;20558;-67
2023/12/22 01:21:26;;;;;;;40.97;36.97;;;27.20;99.90;;;;;;4975752;28;20027;-67
2023/12/22 01:23:53;;;;;;;49.13;44.88;;;27.30;99.90;;;;;;4975728;28;20023;-68
2023/12/22 01:26:19;;;;;;;46.38;42.33;;;27.30;99.90;;;;;;4975889;28;20026;-68
2023/12/22 01:28:46;;;;;;;50.60;46.10;;;27.40;99.90;;;;;;4975372;28;20023;-68
2023/12/22 01:31:12;;;;;;;41.92;38.30;;;27.40;99.90;;;;;;4975544;28;20468;-68
2023/12/22 01:33:39;;;;;;;21.58;19.38;;;27.50;99.90;;;;;;4975434;28;20031;-68
2023/12/22 01:36:05;;;;;;;37.17;33.03;;;27.50;99.90;;;;;;4975229;28;20034;-68
2023/12/22 01:38:32;;;;;;;40.38;36.72;;;27.50;99.90;;;;;;4975264;28;20038;-68
2023/12/22 01:40:58;;;;;;;27.75;24.95;;;27.60;99.90;;;;;;4974498;28;20408;-68
2023/12/22 01:43:25;;;;;;;30.33;27.52;;;27.70;99.90;;;;;;5001206;28;20425;-69
2023/12/22 01:45:58;;;;;;;41.15;37.40;;;27.80;99.90;;;;;;4991642;28;20054;-68
2023/12/22 01:48:26;;;;;;;31.27;28.40;;;27.80;99.90;;;;;;4992614;28;20018;-68
2023/12/22 01:50:53;;;;;;;38.40;35.05;;;27.80;99.90;;;;;;4986029;28;20080;-67
2023/12/22 01:53:20;;;;;;;27.20;24.67;;;27.90;99.90;;;;;;4984274;28;20065;-68
2023/12/22 01:55:48;;;;;;;31.98;28.40;;;28.00;99.90;;;;;;4985629;28;20034;-67
2023/12/22 01:58:15;;;;;;;27.98;25.45;;;28.00;99.90;;;;;;4971046;28;20492;-68
2023/12/22 02:00:42;;;;;;;29.95;27.02;;;28.00;99.90;;;;;;4984748;28;20480;-66
2023/12/22 02:03:09;;;;;;;31.20;28.05;;;28.10;99.90;;;;;;4981717;28;20383;-68
2023/12/22 02:05:35;;;;;;;23.48;20.48;;;28.10;99.90;;;;;;4982442;28;20030;-67
2023/12/22 02:08:02;;;;;;;31.35;28.15;;;28.10;99.90;;;;;;4984937;28;20019;-65
2023/12/22 02:10:29;;;;;;;33.83;30.65;;;28.20;99.90;;;;;;4983423;28;20082;-67
2023/12/22 02:12:55;;;;;;;38.15;34.90;;;28.20;99.90;;;;;;4985498;28;20089;-66
2023/12/22 02:15:22;;;;;;;43.42;39.13;;;28.20;99.90;;;;;;4974439;28;20050;-67
2023/12/22 02:18:02;;;;;;;29.30;26.42;;;28.20;99.90;;;;;;4974271;28;20049;-66
2023/12/22 02:20:30;;;;;;;29.35;26.52;;;28.30;99.90;;;;;;4976935;28;20038;-68
2023/12/22 02:22:56;;;;;;;26.27;21.02;;;28.30;99.90;;;;;;4985033;28;20021;-67
2023/12/22 02:25:23;;;;;;;28.23;25.00;;;28.30;99.90;;;;;;4983743;28;20476;-68
2023/12/22 02:28:13;;;;;;;38.25;34.95;;;28.30;99.90;;;;;;4985660;28;20076;-67
2023/12/22 02:30:57;;;;;;;29.80;26.85;;;28.40;99.90;;;;;;4945449;28;20027;-67
2023/12/22 02:33:27;;;;;;;28.45;25.80;;;28.40;99.90;;;;;;4974699;28;20015;-65
2023/12/22 02:35:56;;;;;;;26.48;23.38;;;28.30;99.90;;;;;;4982258;28;20098;-66
2023/12/22 02:38:23;;;;;;;30.92;28.00;;;28.40;99.90;;;;;;4982887;28;20039;-66
2023/12/22 02:40:50;;;;;;;33.97;30.70;;;28.40;99.90;;;;;;4983679;28;20041;-67
2023/12/22 02:43:16;;;;;;;32.50;22.85;;;28.40;99.90;;;;;;4984233;28;20011;-66
2023/12/22 02:45:43;;;;;;;24.05;21.65;;;28.50;99.90;;;;;;4983218;28;20368;-67
2023/12/22 02:48:10;;;;;;;28.95;26.30;;;28.50;99.90;;;;;;4993975;28;20030;-66
2023/12/22 02:50:37;;;;;;;20.05;18.08;;;28.50;99.90;;;;;;4993825;28;20026;-67
2023/12/22 02:53:03;;;;;;;22.05;19.65;;;28.50;99.90;;;;;;4996920;28;20030;-67
2023/12/22 02:55:30;;;;;;;23.65;21.50;;;28.50;99.90;;;;;;4986370;28;20032;-67
2023/12/22 02:57:56;;;;;;;24.48;22.08;;;28.60;99.90;;;;;;4994590;28;20027;-66
2023/12/22 03:00:23;;;;;;;27.60;24.88;;;28.60;99.90;;;;;;4993336;28;20062;-66
2023/12/22 03:02:49;;;;;;;23.95;21.70;;;28.70;99.90;;;;;;4987932;28;20019;-65
2023/12/22 03:05:16;;;;;;;29.75;27.02;;;28.70;99.90;;;;;;4979508;28;20362;-66
2023/12/22 03:07:42;;;;;;;29.52;26.75;;;28.80;99.90;;;;;;4983292;28;20031;-65
2023/12/22 03:10:09;;;;;;;21.63;19.35;;;28.80;99.90;;;;;;4978076;28;20066;-65
2023/12/22 03:12:36;;;;;;;29.00;20.25;;;28.80;99.90;;;;;;4979478;28;20026;-65
2023/12/22 03:15:02;;;;;;;20.88;18.85;;;28.80;99.90;;;;;;4989174;28;20108;-64
2023/12/22 03:17:29;;;;;;;20.25;17.63;;;28.80;99.90;;;;;;4980407;28;20120;-65
2023/12/22 03:19:55;;;;;;;21.75;18.90;;;28.90;99.90;;;;;;4988158;28;20045;-65
2023/12/22 03:22:22;;;;;;;18.38;16.48;;;28.90;99.90;;;;;;4982788;28;20177;-65
2023/12/22 03:24:48;;;;;;;27.70;25.30;;;28.90;99.90;;;;;;4988489;28;20034;-64
2023/12/22 03:27:16;;;;;;;17.77;16.27;;;29.00;99.90;;;;;;4991362;28;20061;-65
2023/12/22 03:29:43;;;;;;;26.80;24.40;;;29.00;99.90;;;;;;4996767;28;20027;-65
2023/12/22 03:32:10;;;;;;;27.95;25.10;;;29.10;99.90;;;;;;4987248;28;20026;-64
2023/12/22 03:34:36;;;;;;;22.75;14.48;;;29.20;99.90;;;;;;4977896;28;20030;-65
2023/12/22 03:37:03;;;;;;;22.75;20.40;;;29.20;99.90;;;;;;4977618;28;20034;-66
2023/12/22 03:39:29;;;;;;;20.83;18.23;;;29.30;99.90;;;;;;4977088;28;20070;-66
2023/12/22 03:41:56;;;;;;;20.98;16.95;;;29.30;99.90;;;;;;4982554;28;20488;-66
2023/12/22 03:44:22;;;;;;;18.17;14.32;;;29.20;99.90;;;;;;4977341;28;20536;-66
2023/12/22 03:46:51;;;;;;;18.77;16.08;;;29.30;99.90;;;;;;4977513;28;20109;-64
2023/12/22 03:49:19;;;;;;;22.02;19.67;;;29.30;99.90;;;;;;4986457;28;20034;-64
2023/12/22 03:51:46;;;;;;;20.52;18.55;;;29.30;99.90;;;;;;4989414;28;20038;-65
2023/12/22 03:54:12;;;;;;;19.83;16.40;;;29.40;99.90;;;;;;4985969;28;20110;-65
2023/12/22 03:56:38;;;;;;;22.55;19.90;;;29.40;99.90;;;;;;4996701;28;20026;-64
2023/12/22 03:59:05;;;;;;;24.60;18.67;;;29.40;99.90;;;;;;4997009;28;20046;-65
2023/12/22 04:01:31;;;;;;;25.73;22.98;;;29.40;99.90;;;;;;4996733;28;20121;-66
2023/12/22 04:03:58;;;;;;;30.70;23.95;;;29.40;99.90;;;;;;4996014;28;20025;-66
2023/12/22 04:06:24;;;;;;;23.65;21.15;;;29.50;99.90;;;;;;4996618;28;20042;-66
2023/12/22 04:08:51;;;;;;;20.83;18.75;;;29.60;99.90;;;;;;4996929;28;20050;-66
2023/12/22 04:11:17;;;;;;;25.02;22.73;;;29.50;99.90;;;;;;4978971;28;20540;-66
2023/12/22 04:13:44;;;;;;;19.15;13.93;;;29.50;99.90;;;;;;4990757;28;20506;-66
2023/12/22 04:16:10;;;;;;;21.98;19.73;;;29.60;99.90;;;;;;4985217;28;20030;-66
2023/12/22 04:18:37;;;;;;;20.58;17.95;;;29.60;99.90;;;;;;4986617;28;20101;-66
2023/12/22 04:21:04;;;;;;;18.52;16.70;;;29.60;99.90;;;;;;4985405;28;20495;-64
2023/12/22 04:23:30;;;;;;;38.05;21.80;;;29.60;99.90;;;;;;4996309;28;20018;-64
2023/12/22 04:25:57;;;;;;;27.08;21.17;;;29.60;99.90;;;;;;4996489;28;20019;-65
2023/12/22 04:28:23;;;;;;;28.38;25.33;;;29.50;99.90;;;;;;4996385;28;20033;-66
2023/12/22 04:30:50;;;;;;;27.83;25.00;;;29.40;99.90;;;;;;4996707;28;20032;-65
2023/12/22 04:33:16;;;;;;;26.90;24.25;;;29.30;99.90;;;;;;4996405;28;20383;-65
2023/12/22 04:35:43;;;;;;;24.90;22.25;;;29.40;99.90;;;;;;4996167;28;20101;-66
2023/12/22 04:38:09;;;;;;;23.65;19.08;;;29.30;99.90;;;;;;4996244;28;20476;-66
2023/12/22 04:40:36;;;;;;;27.55;24.77;;;29.40;99.90;;;;;;4995815;28;20042;-65
2023/12/22 04:43:03;;;;;;;30.55;27.58;;;29.40;99.90;;;;;;4996102;28;20025;-66
2023/12/22 04:45:29;;;;;;;24.50;21.85;;;29.40;99.90;;;;;;4996035;28;20037;-65
2023/12/22 04:47:56;;;;;;;31.77;28.60;;;29.50;99.90;;;;;;4988959;28;20046;-67
2023/12/22 04:50:23;;;;;;;29.65;26.90;;;29.50;99.90;;;;;;4976137;28;20035;-68
2023/12/22 04:52:49;;;;;;;29.35;26.58;;;29.60;99.90;;;;;;4976059;28;20114;-66
2023/12/22 04:55:16;;;;;;;24.73;22.23;;;29.60;99.90;;;;;;4976075;28;20023;-66
2023/12/22 04:57:42;;;;;;;22.50;18.63;;;29.60;99.90;;;;;;4976009;28;20113;-66
2023/12/22 05:00:09;;;;;;;31.85;22.15;;;29.60;99.90;;;;;;4975738;28;20035;-65
2023/12/22 05:02:36;;;;;;;28.90;26.05;;;29.70;99.90;;;;;;4975999;28;20049;-66
2023/12/22 05:05:03;;;;;;;25.38;22.95;;;29.80;99.90;;;;;;4975900;28;20057;-66
2023/12/22 05:07:30;;;;;;;27.33;24.60;;;29.80;99.90;;;;;;5009435;28;20034;-67
2023/12/22 05:09:56;;;;;;;22.10;18.60;;;29.70;99.90;;;;;;5001306;28;20124;-70
2023/12/22 05:12:23;;;;;;;29.45;26.52;;;29.70;99.90;;;;;;4995157;28;20023;-69
2023/12/22 05:14:49;;;;;;;32.88;26.48;;;29.70;99.90;;;;;;4995101;28;20033;-68
2023/12/22 05:17:16;;;;;;;37.88;34.47;;;29.70;99.90;;;;;;5000812;28;20591;-66
2023/12/22 05:19:42;;;;;;;27.63;22.73;;;29.70;99.90;;;;;;4999128;28;20038;-67
2023/12/22 05:22:09;;;;;;;32.10;29.13;;;29.60;99.90;;;;;;4995206;28;20018;-65
2023/12/22 05:24:37;;;;;;;22.88;20.60;;;29.50;99.90;;;;;;4994837;28;20034;-65
2023/12/22 05:27:04;;;;;;;27.45;24.73;;;29.50;99.90;;;;;;4995206;28;20478;-66
2023/12/22 05:29:30;;;;;;;30.08;27.40;;;29.40;99.90;;;;;;4994747;28;20038;-66
2023/12/22 05:31:57;;;;;;;28.95;25.90;;;29.50;99.90;;;;;;4994627;28;20078;-66
2023/12/22 05:34:23;;;;;;;30.05;27.33;;;29.50;99.90;;;;;;4994751;28;20109;-66
2023/12/22 05:36:50;;;;;;;30.02;27.30;;;29.50;99.90;;;;;;4994822;28;20025;-66
2023/12/22 05:39:16;;;;;;;24.75;22.65;;;29.60;99.90;;;;;;4994449;28;20061;-66
2023/12/22 05:41:43;;;;;;;26.77;24.55;;;29.60;99.90;;;;;;4994405;28;20384;-67
2023/12/22 05:44:09;;;;;;;32.92;30.15;;;29.70;99.90;;;;;;4994634;28;20023;-67
2023/12/22 05:46:38;;;;;;;26.67;24.33;;;29.80;99.90;;;;;;4994468;28;20018;-66
2023/12/22 05:49:04;;;;;;;27.10;24.30;;;29.90;99.90;;;;;;4994593;28;20023;-66
2023/12/22 05:51:38;;;;;;;25.60;22.85;;;30.00;99.90;;;;;;4994894;28;20098;-67
2023/12/22 05:54:08;;;;;;;31.17;28.38;;;30.00;99.90;;;;;;4977095;28;20560;-67
2023/12/22 05:56:35;;;;;;;22.52;20.33;;;30.00;99.90;;;;;;4994262;28;20025;-66
2023/12/22 05:59:03;;;;;;;27.05;24.58;;;30.00;99.90;;;;;;4993573;28;20096;-66
2023/12/22 06:01:29;;;;;;;18.15;16.45;;;30.00;99.90;;;;;;4994201;28;20118;-65
2023/12/22 06:03:56;;;;;;;26.08;23.80;;;30.00;99.90;;;;;;4994033;28;20029;-65
2023/12/22 06:06:23;;;;;;;22.73;20.73;;;30.00;99.90;;;;;;4993623;28;20054;-65
2023/12/22 06:08:49;;;;;;;25.08;23.05;;;30.10;99.90;;;;;;4993528;28;20031;-65
2023/12/22 06:11:16;;;;;;;23.30;21.02;;;30.10;99.90;;;;;;4993517;28;20058;-65
2023/12/22 06:13:42;;;;;;;28.10;25.38;;;30.10;99.90;;;;;;4993541;28;20109;-66
2023/12/22 06:16:15;;;;;;;29.92;27.65;;;30.10;99.90;;;;;;4992353;28;20033;-66
2023/12/22 06:18:42;;;;;;;18.30;16.77;;;30.10;99.90;;;;;;4992541;28;20053;-66
2023/12/22 06:21:10;;;;;;;29.50;27.20;;;30.00;99.90;;;;;;4993413;28;20033;-66
2023/12/22 06:23:37;;;;;;;19.88;18.08;;;30.10;99.90;;;;;;4993807;28;20093;-66
2023/12/22 06:26:10;;;;;;;21.88;19.20;;;30.20;99.90;;;;;;4993587;28;20510;-66
2023/12/22 06:28:38;;;;;;;26.95;24.60;;;30.20;99.90;;;;;;4993628;28;20429;-66
2023/12/22 06:31:04;;;;;;;24.15;21.70;;;30.20;99.90;;;;;;4993717;28;20545;-66
2023/12/22 06:33:31;;;;;;;31.13;28.52;;;30.20;99.90;;;;;;4993463;28;20403;-66
2023/12/22 06:35:57;;;;;;;25.90;22.17;;;30.20;99.90;;;;;;4993572;28;20034;-66
2023/12/22 06:38:24;;;;;;;25.63;23.48;;;30.30;99.90;;;;;;4993639;28;20026;-66
2023/12/22 06:40:50;;;;;;;23.65;21.45;;;30.20;99.90;;;;;;4993540;28;20038;-66
2023/12/22 06:43:17;;;;;;;19.65;17.75;;;30.20;99.90;;;;;;4993537;28;20022;-66
2023/12/22 06:45:43;;;;;;;19.70;17.92;;;30.20;99.90;;;;;;4993440;28;20026;-66
2023/12/22 06:48:10;;;;;;;23.58;21.42;;;30.20;99.90;;;;;;4993681;28;20023;-66
2023/12/22 06:50:39;;;;;;;19.88;17.95;;;30.20;99.90;;;;;;4993636;28;20038;-64
2023/12/22 06:53:05;;;;;;;20.33;18.52;;;30.20;99.90;;;;;;4993674;28;20027;-65
2023/12/22 06:55:32;;;;;;;25.73;23.50;;;30.10;99.90;;;;;;4993434;28;20395;-64
2023/12/22 06:57:58;;;;;;;27.15;24.67;;;30.20;99.90;;;;;;4993006;28;20026;-63
2023/12/22 07:00:25;;;;;;;28.15;25.83;;;30.20;99.90;;;;;;4994006;28;20031;-66
2023/12/22 07:02:51;;;;;;;27.13;24.70;;;30.20;99.90;;;;;;4993854;28;20030;-64
2023/12/22 07:05:22;;;;;;;19.23;15.00;;;30.20;99.90;;;;;;4993878;28;20105;-63
2023/12/22 07:07:49;;;;;;;20.73;18.73;;;30.30;99.90;;;;;;4993776;28;20649;-65
2023/12/22 07:10:15;;;;;;;17.58;15.80;;;30.30;99.90;;;;;;4993496;28;20026;-65
2023/12/22 07:12:42;;;;;;;22.15;20.15;;;30.30;99.90;;;;;;4993518;28;20391;-66
2023/12/22 07:15:09;;;;;;;27.65;25.30;;;30.20;99.90;;;;;;4993433;28;20122;-66
2023/12/22 07:17:35;;;;;;;27.08;24.77;;;30.20;99.90;;;;;;4993492;28;20026;-66
2023/12/22 07:20:03;;;;;;;28.30;25.75;;;30.20;99.90;;;;;;4993544;28;20022;-64
2023/12/22 07:22:30;;;;;;;30.52;27.63;;;30.30;99.90;;;;;;4993553;28;20062;-65
2023/12/22 07:24:56;;;;;;;30.33;27.55;;;30.30;99.90;;;;;;4993250;28;20027;-65
2023/12/22 07:27:23;;;;;;;31.25;28.70;;;30.40;99.90;;;;;;4993614;28;20034;-64
2023/12/22 07:29:49;;;;;;;23.95;21.90;;;30.40;99.90;;;;;;4993362;28;20026;-64
2023/12/22 07:32:16;;;;;;;27.30;25.05;;;30.40;99.90;;;;;;4993536;28;20030;-64
2023/12/22 07:34:43;;;;;;;24.30;22.08;;;30.40;99.90;;;;;;4993395;28;20023;-65
2023/12/22 07:37:09;;;;;;;30.83;28.08;;;30.50;99.90;;;;;;4993203;28;20030;-64
2023/12/22 07:39:36;;;;;;;30.05;27.60;;;30.60;99.90;;;;;;4995042;28;20419;-64
2023/12/22 07:42:03;;;;;;;31.88;28.88;;;30.60;99.90;;;;;;4996793;28;20074;-65
2023/12/22 07:44:29;;;;;;;23.23;21.10;;;30.60;99.90;;;;;;4996440;28;20094;-65
2023/12/22 07:46:59;;;;;;;27.33;24.50;;;30.60;99.90;;;;;;4996626;28;20392;-69
2023/12/22 07:49:25;;;;;;;26.58;24.15;;;30.70;99.90;;;;;;4996511;28;20034;-65
2023/12/22 07:51:53;;;;;;;23.75;21.25;;;30.60;99.90;;;;;;4996306;28;20061;-66
2023/12/22 07:54:19;;;;;;;26.40;23.73;;;30.60;99.90;;;;;;4996537;28;20030;-66
2023/12/22 07:56:46;;;;;;;24.10;21.95;;;30.60;99.90;;;;;;4996667;28;20037;-65
2023/12/22 07:59:12;;;;;;;25.15;22.65;;;30.60;99.90;;;;;;4985638;28;20062;-66
2023/12/22 08:01:40;;;;;;;31.92;29.10;;;30.60;99.90;;;;;;4977553;28;20030;-66
2023/12/22 08:04:06;;;;;;;23.27;21.00;;;30.60;99.90;;;;;;4977304;28;20363;-64
2023/12/22 08:06:33;;;;;;;26.25;23.45;;;30.70;99.90;;;;;;4976689;28;20023;-65
2023/12/22 08:08:59;;;;;;;25.35;22.75;;;30.70;99.90;;;;;;4977483;28;20098;-65
2023/12/22 08:11:26;;;;;;;35.45;32.20;;;30.70;99.90;;;;;;4977002;28;20037;-66
2023/12/22 08:13:53;;;;;;;25.23;22.98;;;30.80;99.90;;;;;;4976674;28;20035;-64
2023/12/22 08:16:20;;;;;;;32.72;30.13;;;30.80;99.90;;;;;;4976744;28;20031;-66
2023/12/22 08:18:46;;;;;;;27.70;25.17;;;30.80;99.90;;;;;;4976859;28;20031;-66
2023/12/22 08:21:15;;;;;;;16.95;15.23;;;30.80;99.90;;;;;;4976624;28;20034;-64
2023/12/22 08:23:41;;;;;;;19.10;17.27;;;30.80;99.90;;;;;;4977085;28;20022;-65
2023/12/22 08:26:08;;;;;;;27.88;25.23;;;30.80;99.90;;;;;;4977156;28;20097;-65
2023/12/22 08:28:35;;;;;;;22.85;20.75;;;30.80;99.90;;;;;;4976613;28;20190;-65
2023/12/22 08:31:02;;;;;;;22.88;20.67;;;30.80;99.90;;;;;;4976872;28;20050;-65
2023/12/22 08:33:29;;;;;;;27.45;25.08;;;30.70;99.90;;;;;;4976682;28;20035;-65
2023/12/22 08:35:55;;;;;;;22.10;20.05;;;30.70;99.90;;;;;;4976528;28;20082;-65
2023/12/22 08:38:22;;;;;;;25.13;23.02;;;30.70;99.90;;;;;;4976620;28;20486;-66
2023/12/22 08:40:48;;;;;;;24.58;19.67;;;30.50;99.90;;;;;;4976448;28;20046;-65
2023/12/22 08:43:15;;;;;;;17.20;15.55;;;30.50;99.90;;;;;;4976355;28;20027;-65
2023/12/22 08:45:41;;;;;;;17.15;15.35;;;30.30;99.90;;;;;;4976580;28;20055;-65
2023/12/22 08:48:08;;;;;;;18.30;16.27;;;30.10;99.90;;;;;;4976708;28;20034;-65
2023/12/22 08:50:35;;;;;;;34.08;17.83;;;29.90;99.90;;;;;;4975973;28;20031;-66
2023/12/22 08:53:02;;;;;;;27.42;16.38;;;29.80;99.90;;;;;;4976468;28;20030;-67
2023/12/22 08:55:28;;;;;;;20.23;17.20;;;29.50;99.90;;;;;;4976383;28;20038;-66
2023/12/22 08:57:55;;;;;;;29.75;19.08;;;29.30;99.90;;;;;;4976579;28;20026;-63
2023/12/22 09:00:22;;;;;;;23.73;19.45;;;29.10;99.90;;;;;;4995105;28;20030;-66
2023/12/22 09:02:48;;;;;;;19.17;15.93;;;29.10;99.90;;;;;;4995753;28;20038;-66
2023/12/22 09:05:15;;;;;;;20.70;15.85;;;29.10;99.90;;;;;;4995333;28;20019;-66
2023/12/22 09:07:42;;;;;;;22.25;19.85;;;29.10;99.90;;;;;;4995021;28;20026;-67
2023/12/22 09:10:08;;;;;;;17.25;14.98;;;29.10;99.90;;;;;;4995501;28;20387;-66
2023/12/22 09:12:35;;;;;;;22.77;17.40;;;29.10;99.90;;;;;;4994952;28;20550;-66
2023/12/22 09:15:01;;;;;;;17.40;15.35;;;29.10;99.90;;;;;;4995522;28;20061;-67
2023/12/22 09:17:28;;;;;;;19.92;14.55;;;29.10;99.90;;;;;;4995573;28;20033;-65
2023/12/22 09:19:55;;;;;;;18.80;16.80;;;29.10;99.90;;;;;;4995294;28;20058;-65
2023/12/22 09:22:22;;;;;;;21.40;17.85;;;29.10;99.90;;;;;;4994144;28;20538;-71
2023/12/22 09:24:48;;;;;;;24.05;14.70;;;29.00;99.90;;;;;;4995640;28;20089;-67
2023/12/22 09:27:15;;;;;;;17.27;13.85;;;29.00;99.90;;;;;;4995305;28;20030;-65
2023/12/22 09:29:42;;;;;;;21.35;19.02;;;29.00;99.90;;;;;;4995362;28;20030;-67
2023/12/22 09:32:08;;;;;;;21.95;16.63;;;29.00;99.90;;;;;;4995983;28;20495;-66
2023/12/22 09:34:35;;;;;;;27.33;16.42;;;28.90;99.90;;;;;;4995291;28;20145;-65
2023/12/22 09:37:01;;;;;;;28.90;22.60;;;28.90;99.90;;;;;;4994932;28;20026;-66
2023/12/22 09:39:28;;;;;;;26.67;21.20;;;28.90;99.90;;;;;;4995307;28;20026;-66
2023/12/22 09:41:55;;;;;;;38.97;30.30;;;28.80;99.90;;;;;;4994737;28;20408;-67
2023/12/22 09:44:22;;;;;;;38.63;28.20;;;28.80;99.90;;;;;;4994598;28;20562;-65
2023/12/22 09:46:50;;;;;;;24.63;22.13;;;28.70;99.90;;;;;;5001240;28;20558;-64
2023/12/22 09:49:18;;;;;;;24.83;18.45;;;28.70;99.90;;;;;;5014210;28;20097;-65
2023/12/22 09:51:45;;;;;;;36.60;27.60;;;28.70;99.90;;;;;;5007303;28;20506;-65
2023/12/22 09:54:13;;;;;;;35.10;29.60;;;28.70;99.90;;;;;;4994309;28;20387;-66
2023/12/22 09:56:42;;;;;;;24.88;21.95;;;28.70;99.90;;;;;;4994246;28;20110;-66
2023/12/22 09:59:19;;;;;;;29.50;26.42;;;28.70;99.90;;;;;;4993997;28;20076;-66
2023/12/22 10:01:50;;;;;;;32.03;25.35;;;28.70;99.90;;;;;;4994456;28;20072;-66
2023/12/22 10:04:17;;;;;;;31.83;28.55;;;28.70;99.90;;;;;;5002411;28;20030;-64
2023/12/22 10:06:46;;;;;;;32.78;28.98;;;28.70;99.90;;;;;;4993849;28;20022;-66
2023/12/22 10:09:15;;;;;;;26.80;23.48;;;28.70;99.90;;;;;;4994047;28;20054;-66
2023/12/22 10:11:43;;;;;;;49.25;39.38;;;28.70;99.90;;;;;;4993750;28;20023;-65
2023/12/22 10:14:11;;;;;;;61.03;43.53;;;28.70;99.90;;;;;;4993947;28;20031;-66
2023/12/22 10:16:38;;;;;;;58.25;43.20;;;28.80;99.90;;;;;;4993884;28;20026;-66
2023/12/22 10:19:07;;;;;;;52.65;38.70;;;28.70;99.90;;;;;;4993767;28;20065;-66
2023/12/22 10:21:36;;;;;;;65.30;47.38;;;28.70;99.90;;;;;;4993703;28;20085;-66
2023/12/22 10:24:02;;;;;;;64.88;45.85;;;28.70;99.90;;;;;;4993816;28;20376;-66
2023/12/22 10:26:29;;;;;;;106.00;73.50;;;28.70;99.90;;;;;;4993756;28;20061;-66
2023/12/22 10:28:55;;;;;;;98.53;68.32;;;28.60;99.90;;;;;;4993866;28;20030;-66
2023/12/22 10:31:22;;;;;;;87.25;60.33;;;28.60;99.90;;;;;;4994142;28;20468;-65
2023/12/22 10:33:49;;;;;;;69.40;50.55;;;28.60;99.90;;;;;;4993664;28;20057;-65
2023/12/22 10:36:15;;;;;;;61.03;38.28;;;28.60;99.90;;;;;;4993689;28;20029;-66
2023/12/22 10:38:43;;;;;;;44.15;33.08;;;28.60;99.90;;;;;;4993665;28;20026;-66
2023/12/22 10:41:09;;;;;;;42.92;27.50;;;28.70;99.90;;;;;;4993237;28;20072;-65
2023/12/22 10:43:39;;;;;;;35.85;26.65;;;28.70;99.90;;;;;;4993747;28;20034;-66
2023/12/22 10:46:08;;;;;;;38.30;29.98;;;28.60;99.90;;;;;;4993638;28;20562;-65
2023/12/22 10:48:34;;;;;;;38.75;29.33;;;28.60;99.90;;;;;;4993422;28;20033;-67
2023/12/22 10:51:01;;;;;;;35.55;26.63;;;28.60;99.90;;;;;;4993555;28;20039;-67
2023/12/22 10:53:28;;;;;;;36.17;28.27;;;28.60;99.90;;;;;;4993672;28;20184;-66
2023/12/22 10:55:55;;;;;;;37.08;28.83;;;28.60;99.90;;;;;;4993369;28;20026;-66
2023/12/22 10:58:22;;;;;;;53.20;38.83;;;28.60;99.90;;;;;;4993646;28;20501;-66
2023/12/22 11:00:51;;;;;;;47.70;36.78;;;28.60;99.90;;;;;;4993565;28;20030;-67
2023/12/22 11:03:22;;;;;;;36.45;27.58;;;28.60;99.90;;;;;;4993324;28;20472;-66
2023/12/22 11:05:51;;;;;;;42.92;35.72;;;28.60;99.90;;;;;;4993940;28;20113;-67
2023/12/22 11:08:20;;;;;;;43.80;35.38;;;28.60;99.90;;;;;;4993471;28;20022;-67
2023/12/22 11:10:52;;;;;;;53.40;40.83;;;28.50;99.90;;;;;;4993194;28;20494;-67
2023/12/22 11:13:20;;;;;;;52.67;38.97;;;28.50;99.90;;;;;;4994618;28;20038;-66
2023/12/22 11:15:48;;;;;;;45.95;37.35;;;28.50;99.90;;;;;;4997627;28;20038;-64
2023/12/22 11:18:15;;;;;;;43.58;34.35;;;28.50;99.90;;;;;;4986680;28;20015;-64
2023/12/22 11:20:42;;;;;;;49.28;38.85;;;28.50;99.90;;;;;;4986458;28;20454;-64
2023/12/22 11:23:09;;;;;;;50.00;34.85;;;28.40;99.90;;;;;;4987954;28;20094;-64
2023/12/22 11:25:36;;;;;;;56.30;35.50;;;28.40;99.90;;;;;;4986341;28;20391;-64
2023/12/22 11:28:06;;;;;;;47.30;32.97;;;28.50;99.90;;;;;;4986430;28;20019;-62
2023/12/22 11:30:32;;;;;;;60.78;41.00;;;28.40;99.90;;;;;;4993344;28;20026;-63
2023/12/22 11:33:00;;;;;;;60.45;41.72;;;28.40;99.90;;;;;;4985460;28;20037;-63
2023/12/22 11:35:29;;;;;;;48.58;39.72;;;28.40;99.90;;;;;;4977445;28;20076;-64
2023/12/22 11:37:56;;;;;;;50.38;36.28;;;28.50;99.90;;;;;;4977380;28;20030;-65
2023/12/22 11:40:23;;;;;;;54.42;43.83;;;28.50;99.90;;;;;;4977106;28;20050;-66
2023/12/22 11:42:51;;;;;;;59.78;44.97;;;28.50;99.90;;;;;;4977532;28;20034;-65
2023/12/22 11:45:18;;;;;;;64.00;49.10;;;28.50;99.90;;;;;;4977215;28;20034;-64
2023/12/22 11:47:46;;;;;;;54.95;47.40;;;28.40;99.90;;;;;;4977288;28;20478;-65
2023/12/22 11:50:27;;;;;;;61.03;42.03;;;28.50;99.90;;;;;;4977194;28;20039;-65
2023/12/22 11:52:54;;;;;;;80.03;60.53;;;28.40;99.90;;;;;;4976979;28;20491;-65
2023/12/22 11:56:00;;;;;;;90.45;64.95;;;28.30;99.90;;;;;;4977093;28;20034;-66
2023/12/22 11:58:36;;;;;;;67.38;53.55;;;28.30;99.90;;;;;;4977054;28;20027;-65
2023/12/22 12:01:05;;;;;;;51.00;35.90;;;28.20;99.90;;;;;;4976972;28;20031;-66
2023/12/22 12:03:32;;;;;;;48.13;34.97;;;28.20;99.90;;;;;;4976824;28;20030;-68
2023/12/22 12:06:30;;;;;;;57.42;39.58;;;28.20;99.90;;;;;;4976927;28;20534;-65
2023/12/22 12:08:58;;;;;;;62.25;44.47;;;28.30;99.90;;;;;;4976953;28;20031;-67
2023/12/22 12:11:44;;;;;;;73.18;50.63;;;28.20;99.90;;;;;;4976365;28;20034;-65
2023/12/22 12:14:14;;;;;;;54.03;38.35;;;28.30;99.90;;;;;;4975897;28;20027;-66
2023/12/22 12:16:42;;;;;;;53.00;37.83;;;28.30;99.90;;;;;;4976529;28;20042;-66
2023/12/22 12:19:09;;;;;;;50.55;32.08;;;28.20;99.90;;;;;;4976492;28;20038;-66
2023/12/22 12:21:36;;;;;;;41.95;31.38;;;28.20;99.90;;;;;;4976469;28;20435;-66
2023/12/22 12:24:05;;;;;;;38.40;32.22;;;28.30;99.90;;;;;;4976097;28;20081;-66
2023/12/22 12:26:33;;;;;;;42.78;28.35;;;28.20;99.90;;;;;;4975947;28;20085;-66